sensor_id;sensor_type;location;lat;lon;timestamp;P1;durP1;ratioP1;P2;durP2;ratioP2
14015;SDS011;7083;48.854;9.158;2022-12-31T00:01:26;659.80;;;620.93;;
14015;SDS011;7083;48.854;9.158;2022-12-31T00:03:56;699.00;;;656.77;;
14015;SDS011;7083;48.854;9.158;2022-12-31T00:06:24;687.43;;;647.00;;
14015;SDS011;7083;48.854;9.158;2022-12-31T00:08:53;660.43;;;621.33;;
14015;SDS011;7083;48.854;9.158;2022-12-31T00:11:22;668.40;;;629.47;;
14015;SDS011;7083;48.854;9.158;2022-12-31T00:13:50;697.23;;;655.70;;
14015;SDS011;7083;48.854;9.158;2022-12-31T00:16:18;726.17;;;681.53;;
14015;SDS011;7083;48.854;9.158;2022-12-31T00:18:50;725.03;;;681.07;;
14015;SDS011;7083;48.854;9.158;2022-12-31T00:21:19;709.67;;;666.00;;
14015;SDS011;7083;48.854;9.158;2022-12-31T00:23:46;704.93;;;662.53;;
14015;SDS011;7083;48.854;9.158;2022-12-31T00:26:16;682.77;;;642.13;;
14015;SDS011;7083;48.854;9.158;2022-12-31T00:28:46;690.17;;;648.97;;
14015;SDS011;7083;48.854;9.158;2022-12-31T00:31:14;659.07;;;621.13;;
14015;SDS011;7083;48.854;9.158;2022-12-31T00:33:43;642.57;;;605.80;;
14015;SDS011;7083;48.854;9.158;2022-12-31T00:36:11;632.23;;;596.90;;
14015;SDS011;7083;48.854;9.158;2022-12-31T00:38:41;629.47;;;593.47;;
14015;SDS011;7083;48.854;9.158;2022-12-31T00:41:09;605.67;;;572.23;;
14015;SDS011;7083;48.854;9.158;2022-12-31T00:43:36;603.37;;;570.93;;
14015;SDS011;7083;48.854;9.158;2022-12-31T00:46:05;625.70;;;590.17;;
14015;SDS011;7083;48.854;9.158;2022-12-31T00:48:32;652.10;;;614.53;;
14015;SDS011;7083;48.854;9.158;2022-12-31T00:51:01;708.97;;;666.37;;
14015;SDS011;7083;48.854;9.158;2022-12-31T00:53:31;730.97;;;686.20;;
14015;SDS011;7083;48.854;9.158;2022-12-31T00:55:59;744.67;;;699.13;;
14015;SDS011;7083;48.854;9.158;2022-12-31T00:58:27;754.07;;;707.53;;
14015;SDS011;7083;48.854;9.158;2022-12-31T01:00:54;782.87;;;734.07;;
14015;SDS011;7083;48.854;9.158;2022-12-31T01:03:22;772.80;;;724.57;;
14015;SDS011;7083;48.854;9.158;2022-12-31T01:05:49;763.97;;;716.10;;
14015;SDS011;7083;48.854;9.158;2022-12-31T01:08:16;797.37;;;746.43;;
14015;SDS011;7083;48.854;9.158;2022-12-31T01:10:46;846.07;;;791.20;;
14015;SDS011;7083;48.854;9.158;2022-12-31T01:13:31;867.50;;;809.63;;
14015;SDS011;7083;48.854;9.158;2022-12-31T01:16:04;822.73;;;770.40;;
14015;SDS011;7083;48.854;9.158;2022-12-31T01:18:33;796.30;;;746.17;;
14015;SDS011;7083;48.854;9.158;2022-12-31T01:21:00;794.83;;;744.83;;
14015;SDS011;7083;48.854;9.158;2022-12-31T01:23:28;813.73;;;761.83;;
14015;SDS011;7083;48.854;9.158;2022-12-31T01:25:55;808.57;;;757.13;;
14015;SDS011;7083;48.854;9.158;2022-12-31T01:28:24;825.33;;;772.13;;
14015;SDS011;7083;48.854;9.158;2022-12-31T01:30:51;785.97;;;736.00;;
14015;SDS011;7083;48.854;9.158;2022-12-31T01:33:17;798.57;;;747.23;;
14015;SDS011;7083;48.854;9.158;2022-12-31T01:35:46;799.77;;;748.73;;
14015;SDS011;7083;48.854;9.158;2022-12-31T01:38:13;829.97;;;776.50;;
14015;SDS011;7083;48.854;9.158;2022-12-31T01:40:40;818.90;;;766.27;;
14015;SDS011;7083;48.854;9.158;2022-12-31T01:43:10;808.37;;;756.83;;
14015;SDS011;7083;48.854;9.158;2022-12-31T01:45:40;805.73;;;754.70;;
14015;SDS011;7083;48.854;9.158;2022-12-31T01:48:09;826.10;;;773.17;;
14015;SDS011;7083;48.854;9.158;2022-12-31T01:50:38;817.30;;;765.33;;
14015;SDS011;7083;48.854;9.158;2022-12-31T01:53:08;790.13;;;740.50;;
14015;SDS011;7083;48.854;9.158;2022-12-31T01:55:37;767.97;;;720.00;;
14015;SDS011;7083;48.854;9.158;2022-12-31T01:58:10;773.63;;;725.97;;
14015;SDS011;7083;48.854;9.158;2022-12-31T02:00:45;790.37;;;740.67;;
14015;SDS011;7083;48.854;9.158;2022-12-31T02:03:12;778.83;;;730.17;;
14015;SDS011;7083;48.854;9.158;2022-12-31T02:05:42;780.73;;;732.07;;
14015;SDS011;7083;48.854;9.158;2022-12-31T02:08:14;763.77;;;716.57;;
14015;SDS011;7083;48.854;9.158;2022-12-31T02:10:41;750.27;;;704.43;;
14015;SDS011;7083;48.854;9.158;2022-12-31T02:13:08;746.33;;;700.47;;
14015;SDS011;7083;48.854;9.158;2022-12-31T02:15:37;764.30;;;717.10;;
14015;SDS011;7083;48.854;9.158;2022-12-31T02:18:15;767.40;;;720.20;;
14015;SDS011;7083;48.854;9.158;2022-12-31T02:20:52;767.93;;;720.60;;
14015;SDS011;7083;48.854;9.158;2022-12-31T02:24:03;762.77;;;716.07;;
14015;SDS011;7083;48.854;9.158;2022-12-31T02:26:56;758.70;;;712.17;;
14015;SDS011;7083;48.854;9.158;2022-12-31T02:32:26;773.00;;;724.33;;
14015;SDS011;7083;48.854;9.158;2022-12-31T02:35:05;802.27;;;750.53;;
14015;SDS011;7083;48.854;9.158;2022-12-31T02:37:35;806.90;;;754.60;;
14015;SDS011;7083;48.854;9.158;2022-12-31T02:40:07;835.93;;;781.13;;
14015;SDS011;7083;48.854;9.158;2022-12-31T02:42:36;848.73;;;792.93;;
14015;SDS011;7083;48.854;9.158;2022-12-31T02:45:04;838.97;;;783.70;;
14015;SDS011;7083;48.854;9.158;2022-12-31T02:47:37;890.07;;;831.07;;
14015;SDS011;7083;48.854;9.158;2022-12-31T02:50:19;872.00;;;814.63;;
14015;SDS011;7083;48.854;9.158;2022-12-31T02:52:57;872.30;;;815.17;;
14015;SDS011;7083;48.854;9.158;2022-12-31T02:55:37;843.50;;;788.37;;
14015;SDS011;7083;48.854;9.158;2022-12-31T02:58:11;871.60;;;814.47;;
14015;SDS011;7083;48.854;9.158;2022-12-31T03:00:45;882.43;;;824.37;;
14015;SDS011;7083;48.854;9.158;2022-12-31T03:03:34;856.33;;;801.13;;
14015;SDS011;7083;48.854;9.158;2022-12-31T03:06:02;866.77;;;810.57;;
14015;SDS011;7083;48.854;9.158;2022-12-31T03:08:31;869.87;;;813.30;;
14015;SDS011;7083;48.854;9.158;2022-12-31T03:11:17;899.07;;;839.90;;
14015;SDS011;7083;48.854;9.158;2022-12-31T03:13:58;879.23;;;821.77;;
14015;SDS011;7083;48.854;9.158;2022-12-31T03:16:25;922.20;;;860.57;;
14015;SDS011;7083;48.854;9.158;2022-12-31T03:18:53;898.30;;;838.77;;
14015;SDS011;7083;48.854;9.158;2022-12-31T03:21:37;878.87;;;821.07;;
14015;SDS011;7083;48.854;9.158;2022-12-31T03:24:21;891.83;;;832.90;;
14015;SDS011;7083;48.854;9.158;2022-12-31T03:27:06;885.50;;;827.37;;
14015;SDS011;7083;48.854;9.158;2022-12-31T03:29:32;894.27;;;835.03;;
14015;SDS011;7083;48.854;9.158;2022-12-31T03:31:59;917.07;;;855.47;;
14015;SDS011;7083;48.854;9.158;2022-12-31T03:34:27;923.03;;;860.77;;
14015;SDS011;7083;48.854;9.158;2022-12-31T03:36:54;909.77;;;848.47;;
14015;SDS011;7083;48.854;9.158;2022-12-31T03:39:20;919.73;;;857.33;;
14015;SDS011;7083;48.854;9.158;2022-12-31T03:41:47;906.87;;;845.97;;
14015;SDS011;7083;48.854;9.158;2022-12-31T03:44:14;933.90;;;870.47;;
14015;SDS011;7083;48.854;9.158;2022-12-31T03:46:40;950.13;;;885.30;;
14015;SDS011;7083;48.854;9.158;2022-12-31T03:49:07;969.50;;;902.23;;
14015;SDS011;7083;48.854;9.158;2022-12-31T03:51:35;969.47;;;902.23;;
14015;SDS011;7083;48.854;9.158;2022-12-31T03:54:02;951.70;;;886.20;;
14015;SDS011;7083;48.854;9.158;2022-12-31T03:56:29;975.80;;;907.53;;
14015;SDS011;7083;48.854;9.158;2022-12-31T03:58:55;993.13;;;923.37;;
14015;SDS011;7083;48.854;9.158;2022-12-31T04:01:22;966.80;;;899.80;;
14015;SDS011;7083;48.854;9.158;2022-12-31T04:03:49;982.83;;;914.20;;
14015;SDS011;7083;48.854;9.158;2022-12-31T04:06:16;975.13;;;907.50;;
14015;SDS011;7083;48.854;9.158;2022-12-31T04:08:44;982.87;;;914.63;;
14015;SDS011;7083;48.854;9.158;2022-12-31T04:11:10;1002.67;;;932.53;;
14015;SDS011;7083;48.854;9.158;2022-12-31T04:13:37;997.70;;;927.50;;
14015;SDS011;7083;48.854;9.158;2022-12-31T04:16:04;1019.97;;;946.03;;
14015;SDS011;7083;48.854;9.158;2022-12-31T04:18:30;1016.70;;;944.07;;
14015;SDS011;7083;48.854;9.158;2022-12-31T04:20:59;1041.30;;;965.83;;
14015;SDS011;7083;48.854;9.158;2022-12-31T04:23:27;1024.50;;;950.83;;
14015;SDS011;7083;48.854;9.158;2022-12-31T04:25:55;1025.30;;;951.37;;
14015;SDS011;7083;48.854;9.158;2022-12-31T04:28:22;1053.37;;;976.57;;
14015;SDS011;7083;48.854;9.158;2022-12-31T04:30:48;1011.73;;;939.43;;
14015;SDS011;7083;48.854;9.158;2022-12-31T04:33:15;1049.33;;;972.47;;
14015;SDS011;7083;48.854;9.158;2022-12-31T04:35:42;1062.20;;;983.73;;
14015;SDS011;7083;48.854;9.158;2022-12-31T04:38:09;1063.43;;;984.73;;
14015;SDS011;7083;48.854;9.158;2022-12-31T04:40:35;1051.00;;;973.27;;
14015;SDS011;7083;48.854;9.158;2022-12-31T04:43:23;1045.67;;;969.30;;
14015;SDS011;7083;48.854;9.158;2022-12-31T04:45:50;1054.70;;;977.37;;
14015;SDS011;7083;48.854;9.158;2022-12-31T04:48:17;1050.10;;;973.83;;
14015;SDS011;7083;48.854;9.158;2022-12-31T04:50:44;1055.67;;;978.73;;
14015;SDS011;7083;48.854;9.158;2022-12-31T04:53:11;1034.93;;;961.13;;
14015;SDS011;7083;48.854;9.158;2022-12-31T04:55:39;1021.00;;;948.53;;
14015;SDS011;7083;48.854;9.158;2022-12-31T04:58:06;1016.77;;;945.33;;
14015;SDS011;7083;48.854;9.158;2022-12-31T05:00:34;999.60;;;929.53;;
14015;SDS011;7083;48.854;9.158;2022-12-31T05:03:01;1023.20;;;950.67;;
14015;SDS011;7083;48.854;9.158;2022-12-31T05:05:27;1029.23;;;955.57;;
14015;SDS011;7083;48.854;9.158;2022-12-31T05:07:54;1019.13;;;947.73;;
14015;SDS011;7083;48.854;9.158;2022-12-31T05:10:21;1014.17;;;942.70;;
14015;SDS011;7083;48.854;9.158;2022-12-31T05:12:48;997.53;;;927.40;;
14015;SDS011;7083;48.854;9.158;2022-12-31T05:15:15;1011.17;;;939.53;;
14015;SDS011;7083;48.854;9.158;2022-12-31T05:17:43;1008.87;;;937.97;;
14015;SDS011;7083;48.854;9.158;2022-12-31T05:20:09;1013.43;;;942.53;;
14015;SDS011;7083;48.854;9.158;2022-12-31T05:22:36;993.00;;;923.73;;
14015;SDS011;7083;48.854;9.158;2022-12-31T05:25:03;996.67;;;927.70;;
14015;SDS011;7083;48.854;9.158;2022-12-31T05:27:30;1000.33;;;930.63;;
14015;SDS011;7083;48.854;9.158;2022-12-31T05:29:58;979.00;;;911.80;;
14015;SDS011;7083;48.854;9.158;2022-12-31T05:32:25;1011.77;;;941.67;;
14015;SDS011;7083;48.854;9.158;2022-12-31T05:34:53;983.87;;;916.20;;
14015;SDS011;7083;48.854;9.158;2022-12-31T05:37:19;980.13;;;912.33;;
14015;SDS011;7083;48.854;9.158;2022-12-31T05:39:46;985.47;;;917.73;;
14015;SDS011;7083;48.854;9.158;2022-12-31T05:42:13;974.37;;;906.97;;
14015;SDS011;7083;48.854;9.158;2022-12-31T05:44:39;966.20;;;899.73;;
14015;SDS011;7083;48.854;9.158;2022-12-31T05:47:06;987.07;;;918.37;;
14015;SDS011;7083;48.854;9.158;2022-12-31T05:49:33;999.77;;;930.13;;
14015;SDS011;7083;48.854;9.158;2022-12-31T05:52:01;997.53;;;928.17;;
14015;SDS011;7083;48.854;9.158;2022-12-31T05:54:28;1013.67;;;942.20;;
14015;SDS011;7083;48.854;9.158;2022-12-31T05:56:54;1008.30;;;937.57;;
14015;SDS011;7083;48.854;9.158;2022-12-31T05:59:21;1020.67;;;949.33;;
14015;SDS011;7083;48.854;9.158;2022-12-31T06:01:48;1036.07;;;961.67;;
14015;SDS011;7083;48.854;9.158;2022-12-31T06:04:14;1046.57;;;970.97;;
14015;SDS011;7083;48.854;9.158;2022-12-31T06:06:41;1063.23;;;985.67;;
14015;SDS011;7083;48.854;9.158;2022-12-31T06:09:09;1066.70;;;987.47;;
14015;SDS011;7083;48.854;9.158;2022-12-31T06:11:37;1079.57;;;998.93;;
14015;SDS011;7083;48.854;9.158;2022-12-31T06:14:04;1092.33;;;999.90;;
14015;SDS011;7083;48.854;9.158;2022-12-31T06:16:31;1093.33;;;999.90;;
14015;SDS011;7083;48.854;9.158;2022-12-31T06:18:57;1094.37;;;999.90;;
14015;SDS011;7083;48.854;9.158;2022-12-31T06:21:25;1096.67;;;999.90;;
14015;SDS011;7083;48.854;9.158;2022-12-31T06:23:52;1109.30;;;999.90;;
14015;SDS011;7083;48.854;9.158;2022-12-31T06:26:20;1119.90;;;999.90;;
14015;SDS011;7083;48.854;9.158;2022-12-31T06:28:47;1118.50;;;999.90;;
14015;SDS011;7083;48.854;9.158;2022-12-31T06:31:14;1131.00;;;999.90;;
14015;SDS011;7083;48.854;9.158;2022-12-31T06:33:41;1109.20;;;999.90;;
14015;SDS011;7083;48.854;9.158;2022-12-31T06:36:09;1100.83;;;999.90;;
14015;SDS011;7083;48.854;9.158;2022-12-31T06:38:38;1107.67;;;999.90;;
14015;SDS011;7083;48.854;9.158;2022-12-31T06:41:06;1112.73;;;999.90;;
14015;SDS011;7083;48.854;9.158;2022-12-31T06:43:37;1115.17;;;999.90;;
14015;SDS011;7083;48.854;9.158;2022-12-31T06:46:05;1117.07;;;999.90;;
14015;SDS011;7083;48.854;9.158;2022-12-31T06:48:33;1110.67;;;999.90;;
14015;SDS011;7083;48.854;9.158;2022-12-31T06:51:02;1105.33;;;999.90;;
14015;SDS011;7083;48.854;9.158;2022-12-31T06:53:30;1090.57;;;999.90;;
14015;SDS011;7083;48.854;9.158;2022-12-31T06:55:57;1090.53;;;999.90;;
14015;SDS011;7083;48.854;9.158;2022-12-31T06:58:30;1098.03;;;999.90;;
14015;SDS011;7083;48.854;9.158;2022-12-31T07:01:00;1094.77;;;999.90;;
14015;SDS011;7083;48.854;9.158;2022-12-31T07:03:38;1062.63;;;983.87;;
14015;SDS011;7083;48.854;9.158;2022-12-31T07:06:10;1089.00;;;999.90;;
14015;SDS011;7083;48.854;9.158;2022-12-31T07:08:43;1076.20;;;995.70;;
14015;SDS011;7083;48.854;9.158;2022-12-31T07:11:16;1065.93;;;985.53;;
14015;SDS011;7083;48.854;9.158;2022-12-31T07:13:54;1080.23;;;997.83;;
14015;SDS011;7083;48.854;9.158;2022-12-31T07:16:46;1074.47;;;993.20;;
14015;SDS011;7083;48.854;9.158;2022-12-31T07:19:24;1079.73;;;997.90;;
14015;SDS011;7083;48.854;9.158;2022-12-31T07:22:00;1060.43;;;981.83;;
14015;SDS011;7083;48.854;9.158;2022-12-31T07:24:28;1085.97;;;999.90;;
14015;SDS011;7083;48.854;9.158;2022-12-31T07:27:00;1073.20;;;992.77;;
14015;SDS011;7083;48.854;9.158;2022-12-31T07:29:39;1091.57;;;999.90;;
14015;SDS011;7083;48.854;9.158;2022-12-31T07:32:34;1098.40;;;999.90;;
14015;SDS011;7083;48.854;9.158;2022-12-31T07:35:21;1100.97;;;999.90;;
14015;SDS011;7083;48.854;9.158;2022-12-31T07:37:59;1092.53;;;999.90;;
14015;SDS011;7083;48.854;9.158;2022-12-31T07:40:34;1089.93;;;999.90;;
14015;SDS011;7083;48.854;9.158;2022-12-31T07:43:21;1115.43;;;999.90;;
14015;SDS011;7083;48.854;9.158;2022-12-31T07:45:57;1139.40;;;999.90;;
14015;SDS011;7083;48.854;9.158;2022-12-31T07:48:29;1143.20;;;999.90;;
14015;SDS011;7083;48.854;9.158;2022-12-31T07:50:56;1141.03;;;999.90;;
14015;SDS011;7083;48.854;9.158;2022-12-31T07:53:23;1140.97;;;999.90;;
14015;SDS011;7083;48.854;9.158;2022-12-31T07:55:52;1125.43;;;999.90;;
14015;SDS011;7083;48.854;9.158;2022-12-31T07:58:21;1154.37;;;999.90;;
14015;SDS011;7083;48.854;9.158;2022-12-31T08:00:53;1159.83;;;999.90;;
14015;SDS011;7083;48.854;9.158;2022-12-31T08:03:26;1122.60;;;999.90;;
14015;SDS011;7083;48.854;9.158;2022-12-31T08:06:07;1137.80;;;999.90;;
14015;SDS011;7083;48.854;9.158;2022-12-31T08:08:40;1134.83;;;999.90;;
14015;SDS011;7083;48.854;9.158;2022-12-31T08:11:15;1154.20;;;999.90;;
14015;SDS011;7083;48.854;9.158;2022-12-31T08:13:48;1173.20;;;999.90;;
14015;SDS011;7083;48.854;9.158;2022-12-31T08:16:17;1167.47;;;999.90;;
14015;SDS011;7083;48.854;9.158;2022-12-31T08:18:47;1182.43;;;999.90;;
14015;SDS011;7083;48.854;9.158;2022-12-31T08:21:17;1154.93;;;999.90;;
14015;SDS011;7083;48.854;9.158;2022-12-31T08:23:54;1193.93;;;999.90;;
14015;SDS011;7083;48.854;9.158;2022-12-31T08:26:32;1181.10;;;999.90;;
14015;SDS011;7083;48.854;9.158;2022-12-31T08:29:06;1142.87;;;999.90;;
14015;SDS011;7083;48.854;9.158;2022-12-31T08:31:48;1128.23;;;999.90;;
14015;SDS011;7083;48.854;9.158;2022-12-31T08:34:24;1110.63;;;999.90;;
14015;SDS011;7083;48.854;9.158;2022-12-31T08:36:59;1136.53;;;999.90;;
14015;SDS011;7083;48.854;9.158;2022-12-31T08:42:23;1123.03;;;999.90;;
14015;SDS011;7083;48.854;9.158;2022-12-31T08:44:58;1125.53;;;999.90;;
14015;SDS011;7083;48.854;9.158;2022-12-31T08:47:32;1128.57;;;999.90;;
14015;SDS011;7083;48.854;9.158;2022-12-31T08:50:13;1140.60;;;999.90;;
14015;SDS011;7083;48.854;9.158;2022-12-31T08:52:41;1121.23;;;999.90;;
14015;SDS011;7083;48.854;9.158;2022-12-31T08:55:11;1119.87;;;999.90;;
14015;SDS011;7083;48.854;9.158;2022-12-31T08:57:41;1098.53;;;997.67;;
14015;SDS011;7083;48.854;9.158;2022-12-31T09:00:14;1091.17;;;994.30;;
14015;SDS011;7083;48.854;9.158;2022-12-31T09:02:47;1131.43;;;999.90;;
14015;SDS011;7083;48.854;9.158;2022-12-31T09:05:21;1071.63;;;978.93;;
14015;SDS011;7083;48.854;9.158;2022-12-31T09:07:54;1052.67;;;960.57;;
14015;SDS011;7083;48.854;9.158;2022-12-31T09:10:33;1058.33;;;967.33;;
14015;SDS011;7083;48.854;9.158;2022-12-31T09:13:07;1692.80;;;994.87;;
14015;SDS011;7083;48.854;9.158;2022-12-31T09:15:40;1058.07;;;968.80;;
14015;SDS011;7083;48.854;9.158;2022-12-31T09:18:10;1074.77;;;982.80;;
14015;SDS011;7083;48.854;9.158;2022-12-31T09:20:40;1052.10;;;962.73;;
14015;SDS011;7083;48.854;9.158;2022-12-31T09:23:07;1093.67;;;996.10;;
14015;SDS011;7083;48.854;9.158;2022-12-31T09:25:34;956.40;;;872.13;;
14015;SDS011;7083;48.854;9.158;2022-12-31T09:28:10;983.93;;;898.97;;
14015;SDS011;7083;48.854;9.158;2022-12-31T09:30:44;948.47;;;866.10;;
14015;SDS011;7083;48.854;9.158;2022-12-31T09:33:15;917.63;;;837.90;;
14015;SDS011;7083;48.854;9.158;2022-12-31T09:35:56;1184.87;;;805.13;;
14015;SDS011;7083;48.854;9.158;2022-12-31T09:38:29;900.37;;;821.23;;
14015;SDS011;7083;48.854;9.158;2022-12-31T09:41:13;1565.37;;;877.47;;
14015;SDS011;7083;48.854;9.158;2022-12-31T09:47:00;1999.90;;;999.90;;
14015;SDS011;7083;48.854;9.158;2022-12-31T09:50:02;1083.23;;;713.80;;
14015;SDS011;7083;48.854;9.158;2022-12-31T09:52:49;812.40;;;744.83;;
14015;SDS011;7083;48.854;9.158;2022-12-31T09:55:30;1542.70;;;857.30;;
14015;SDS011;7083;48.854;9.158;2022-12-31T09:58:06;1533.60;;;849.47;;
14015;SDS011;7083;48.854;9.158;2022-12-31T10:00:43;625.30;;;572.03;;
14015;SDS011;7083;48.854;9.158;2022-12-31T10:03:20;1054.03;;;686.43;;
14015;SDS011;7083;48.854;9.158;2022-12-31T10:06:05;1999.90;;;999.90;;
14015;SDS011;7083;48.854;9.158;2022-12-31T10:08:48;917.63;;;562.70;;
14015;SDS011;7083;48.854;9.158;2022-12-31T10:11:28;1999.90;;;999.90;;
14015;SDS011;7083;48.854;9.158;2022-12-31T10:14:07;1999.90;;;999.90;;
14015;SDS011;7083;48.854;9.158;2022-12-31T10:19:46;1999.90;;;999.90;;
14015;SDS011;7083;48.854;9.158;2022-12-31T10:25:43;1999.90;;;999.90;;
14015;SDS011;7083;48.854;9.158;2022-12-31T10:28:24;1999.90;;;999.90;;
14015;SDS011;7083;48.854;9.158;2022-12-31T10:31:05;1999.90;;;999.90;;
14015;SDS011;7083;48.854;9.158;2022-12-31T10:33:41;1999.90;;;999.90;;
14015;SDS011;7083;48.854;9.158;2022-12-31T10:36:14;1999.90;;;999.90;;
14015;SDS011;7083;48.854;9.158;2022-12-31T10:38:52;1999.90;;;999.90;;
14015;SDS011;7083;48.854;9.158;2022-12-31T10:47:36;1999.90;;;999.90;;
14015;SDS011;7083;48.854;9.158;2022-12-31T10:50:30;1999.90;;;999.90;;
14015;SDS011;7083;48.854;9.158;2022-12-31T11:02:25;1999.90;;;999.90;;
14015;SDS011;7083;48.854;9.158;2022-12-31T11:05:30;1999.90;;;999.90;;
14015;SDS011;7083;48.854;9.158;2022-12-31T11:08:15;1999.90;;;999.90;;
14015;SDS011;7083;48.854;9.158;2022-12-31T11:11:03;1999.90;;;999.90;;
14015;SDS011;7083;48.854;9.158;2022-12-31T11:16:55;1999.90;;;999.90;;
14015;SDS011;7083;48.854;9.158;2022-12-31T11:19:35;1999.90;;;999.90;;
14015;SDS011;7083;48.854;9.158;2022-12-31T11:22:12;1999.90;;;999.90;;
14015;SDS011;7083;48.854;9.158;2022-12-31T11:25:01;1999.90;;;999.90;;
14015;SDS011;7083;48.854;9.158;2022-12-31T11:27:40;1999.90;;;999.90;;
14015;SDS011;7083;48.854;9.158;2022-12-31T11:30:15;1999.90;;;999.90;;
14015;SDS011;7083;48.854;9.158;2022-12-31T11:32:51;1999.90;;;999.90;;
14015;SDS011;7083;48.854;9.158;2022-12-31T11:35:28;1999.90;;;999.90;;
14015;SDS011;7083;48.854;9.158;2022-12-31T11:38:08;1999.90;;;999.90;;
14015;SDS011;7083;48.854;9.158;2022-12-31T11:40:48;1999.90;;;999.90;;
14015;SDS011;7083;48.854;9.158;2022-12-31T11:43:26;1999.90;;;999.90;;
14015;SDS011;7083;48.854;9.158;2022-12-31T11:46:07;1999.90;;;999.90;;
14015;SDS011;7083;48.854;9.158;2022-12-31T11:48:53;1999.90;;;999.90;;
14015;SDS011;7083;48.854;9.158;2022-12-31T11:51:42;1999.90;;;999.90;;
14015;SDS011;7083;48.854;9.158;2022-12-31T11:54:29;1999.90;;;999.90;;
14015;SDS011;7083;48.854;9.158;2022-12-31T11:57:08;1999.90;;;999.90;;
14015;SDS011;7083;48.854;9.158;2022-12-31T11:59:41;1999.90;;;999.90;;
14015;SDS011;7083;48.854;9.158;2022-12-31T12:02:13;1999.90;;;999.90;;
14015;SDS011;7083;48.854;9.158;2022-12-31T12:04:50;1999.90;;;999.90;;
14015;SDS011;7083;48.854;9.158;2022-12-31T12:07:21;1999.90;;;999.90;;
14015;SDS011;7083;48.854;9.158;2022-12-31T12:09:49;1999.90;;;999.90;;
14015;SDS011;7083;48.854;9.158;2022-12-31T12:12:19;1999.90;;;999.90;;
14015;SDS011;7083;48.854;9.158;2022-12-31T12:14:48;1999.90;;;999.90;;
14015;SDS011;7083;48.854;9.158;2022-12-31T12:17:19;1999.90;;;999.90;;
14015;SDS011;7083;48.854;9.158;2022-12-31T12:19:55;1999.90;;;999.90;;
14015;SDS011;7083;48.854;9.158;2022-12-31T12:22:27;1999.90;;;999.90;;
14015;SDS011;7083;48.854;9.158;2022-12-31T12:24:55;1999.90;;;999.90;;
14015;SDS011;7083;48.854;9.158;2022-12-31T12:27:26;1999.90;;;999.90;;
14015;SDS011;7083;48.854;9.158;2022-12-31T12:29:54;1999.90;;;999.90;;
14015;SDS011;7083;48.854;9.158;2022-12-31T12:32:22;1999.90;;;999.90;;
14015;SDS011;7083;48.854;9.158;2022-12-31T12:34:50;1999.90;;;999.90;;
14015;SDS011;7083;48.854;9.158;2022-12-31T12:37:25;1999.90;;;999.90;;
14015;SDS011;7083;48.854;9.158;2022-12-31T12:39:56;1999.90;;;999.90;;
14015;SDS011;7083;48.854;9.158;2022-12-31T12:42:24;1999.90;;;999.90;;
14015;SDS011;7083;48.854;9.158;2022-12-31T12:45:02;1999.90;;;999.90;;
14015;SDS011;7083;48.854;9.158;2022-12-31T12:47:30;1999.90;;;999.90;;
14015;SDS011;7083;48.854;9.158;2022-12-31T12:49:58;1999.90;;;999.90;;
14015;SDS011;7083;48.854;9.158;2022-12-31T12:55:23;1999.90;;;999.90;;
14015;SDS011;7083;48.854;9.158;2022-12-31T12:57:56;1999.90;;;999.90;;
14015;SDS011;7083;48.854;9.158;2022-12-31T13:00:29;1999.90;;;999.90;;
14015;SDS011;7083;48.854;9.158;2022-12-31T13:03:14;1999.90;;;999.90;;
14015;SDS011;7083;48.854;9.158;2022-12-31T13:06:01;1999.90;;;999.90;;
14015;SDS011;7083;48.854;9.158;2022-12-31T13:08:50;1999.90;;;999.90;;
14015;SDS011;7083;48.854;9.158;2022-12-31T13:11:29;1999.90;;;999.90;;
14015;SDS011;7083;48.854;9.158;2022-12-31T13:14:04;1999.90;;;999.90;;
14015;SDS011;7083;48.854;9.158;2022-12-31T13:16:42;1999.90;;;999.90;;
14015;SDS011;7083;48.854;9.158;2022-12-31T13:19:16;1999.90;;;999.90;;
14015;SDS011;7083;48.854;9.158;2022-12-31T13:21:54;1999.90;;;999.90;;
14015;SDS011;7083;48.854;9.158;2022-12-31T13:24:31;1999.90;;;999.90;;
14015;SDS011;7083;48.854;9.158;2022-12-31T13:27:09;1999.90;;;999.90;;
14015;SDS011;7083;48.854;9.158;2022-12-31T13:29:43;1999.90;;;999.90;;
14015;SDS011;7083;48.854;9.158;2022-12-31T13:32:14;1999.90;;;999.90;;
14015;SDS011;7083;48.854;9.158;2022-12-31T13:34:43;1999.90;;;999.90;;
14015;SDS011;7083;48.854;9.158;2022-12-31T13:37:17;1999.90;;;999.90;;
14015;SDS011;7083;48.854;9.158;2022-12-31T13:39:53;1999.90;;;999.90;;
14015;SDS011;7083;48.854;9.158;2022-12-31T13:42:26;1999.90;;;999.90;;
14015;SDS011;7083;48.854;9.158;2022-12-31T13:44:58;1999.90;;;999.90;;
14015;SDS011;7083;48.854;9.158;2022-12-31T13:47:28;1999.90;;;999.90;;
14015;SDS011;7083;48.854;9.158;2022-12-31T13:50:02;1999.90;;;999.90;;
14015;SDS011;7083;48.854;9.158;2022-12-31T13:52:39;1999.90;;;999.90;;
14015;SDS011;7083;48.854;9.158;2022-12-31T13:55:12;1999.90;;;999.90;;
14015;SDS011;7083;48.854;9.158;2022-12-31T13:57:44;1999.90;;;999.90;;
14015;SDS011;7083;48.854;9.158;2022-12-31T14:00:17;1999.90;;;999.90;;
14015;SDS011;7083;48.854;9.158;2022-12-31T14:02:49;1999.90;;;999.90;;
14015;SDS011;7083;48.854;9.158;2022-12-31T14:05:24;1999.90;;;999.90;;
14015;SDS011;7083;48.854;9.158;2022-12-31T14:07:56;1999.90;;;999.90;;
14015;SDS011;7083;48.854;9.158;2022-12-31T14:10:28;1999.90;;;999.90;;
14015;SDS011;7083;48.854;9.158;2022-12-31T14:13:18;1999.90;;;999.90;;
14015;SDS011;7083;48.854;9.158;2022-12-31T14:16:01;1999.90;;;999.90;;
14015;SDS011;7083;48.854;9.158;2022-12-31T14:18:35;1999.90;;;999.90;;
14015;SDS011;7083;48.854;9.158;2022-12-31T14:21:12;1999.90;;;999.90;;
14015;SDS011;7083;48.854;9.158;2022-12-31T14:23:44;1999.90;;;999.90;;
14015;SDS011;7083;48.854;9.158;2022-12-31T14:26:18;1999.90;;;999.90;;
14015;SDS011;7083;48.854;9.158;2022-12-31T14:28:54;1999.90;;;999.90;;
14015;SDS011;7083;48.854;9.158;2022-12-31T14:31:28;1999.90;;;999.90;;
14015;SDS011;7083;48.854;9.158;2022-12-31T14:34:05;1999.90;;;999.90;;
14015;SDS011;7083;48.854;9.158;2022-12-31T14:36:39;1999.90;;;999.90;;
14015;SDS011;7083;48.854;9.158;2022-12-31T14:39:18;1999.90;;;999.90;;
14015;SDS011;7083;48.854;9.158;2022-12-31T14:41:59;1999.90;;;999.90;;
14015;SDS011;7083;48.854;9.158;2022-12-31T14:44:41;1999.90;;;999.90;;
14015;SDS011;7083;48.854;9.158;2022-12-31T14:47:20;1999.90;;;999.90;;
14015;SDS011;7083;48.854;9.158;2022-12-31T14:49:58;1999.90;;;999.90;;
14015;SDS011;7083;48.854;9.158;2022-12-31T14:52:31;1999.90;;;999.90;;
14015;SDS011;7083;48.854;9.158;2022-12-31T14:55:00;1999.90;;;999.90;;
14015;SDS011;7083;48.854;9.158;2022-12-31T14:57:45;1999.90;;;999.90;;
14015;SDS011;7083;48.854;9.158;2022-12-31T15:00:23;1999.90;;;999.90;;
14015;SDS011;7083;48.854;9.158;2022-12-31T15:02:56;1999.90;;;999.90;;
14015;SDS011;7083;48.854;9.158;2022-12-31T15:05:25;1999.90;;;999.90;;
14015;SDS011;7083;48.854;9.158;2022-12-31T15:08:12;1999.90;;;999.90;;
14015;SDS011;7083;48.854;9.158;2022-12-31T15:10:52;1999.90;;;999.90;;